sensor_id;sensor_type;location;lat;lon;timestamp;P1;durP1;ratioP1;P2;durP2;ratioP2
14663;SDS011;7419;52.184;5.944;2023-04-15T00:03:35;4.38;;;1.94;;
14663;SDS011;7419;52.184;5.944;2023-04-15T00:03:35;2.34;;;1.84;;
14663;SDS011;7419;52.184;5.944;2023-04-15T00:04:12;3.48;;;1.83;;
14663;SDS011;7419;52.184;5.944;2023-04-15T00:05:12;4.24;;;2.24;;
14663;SDS011;7419;52.184;5.944;2023-04-15T00:06:12;2.77;;;1.98;;
14663;SDS011;7419;52.184;5.944;2023-04-15T00:07:12;2.35;;;2.09;;
14663;SDS011;7419;52.184;5.944;2023-04-15T00:08:12;2.94;;;1.72;;
14663;SDS011;7419;52.184;5.944;2023-04-15T00:09:12;3.69;;;1.83;;
14663;SDS011;7419;52.184;5.944;2023-04-15T00:10:12;1.94;;;1.63;;
14663;SDS011;7419;52.184;5.944;2023-04-15T00:11:12;2.36;;;1.88;;
14663;SDS011;7419;52.184;5.944;2023-04-15T00:12:12;4.35;;;2.20;;
14663;SDS011;7419;52.184;5.944;2023-04-15T00:13:12;4.51;;;2.48;;
14663;SDS011;7419;52.184;5.944;2023-04-15T00:14:12;4.58;;;2.01;;
14663;SDS011;7419;52.184;5.944;2023-04-15T00:15:13;5.34;;;2.30;;
14663;SDS011;7419;52.184;5.944;2023-04-15T00:16:13;5.60;;;2.30;;
14663;SDS011;7419;52.184;5.944;2023-04-15T00:17:13;3.57;;;2.26;;
14663;SDS011;7419;52.184;5.944;2023-04-15T00:18:13;5.64;;;2.74;;
14663;SDS011;7419;52.184;5.944;2023-04-15T00:19:13;3.88;;;2.94;;
14663;SDS011;7419;52.184;5.944;2023-04-15T00:20:13;4.88;;;2.64;;
14663;SDS011;7419;52.184;5.944;2023-04-15T00:21:13;6.40;;;2.86;;
14663;SDS011;7419;52.184;5.944;2023-04-15T00:22:13;9.12;;;2.79;;
14663;SDS011;7419;52.184;5.944;2023-04-15T00:23:13;8.24;;;2.89;;
14663;SDS011;7419;52.184;5.944;2023-04-15T00:24:13;3.26;;;2.98;;
14663;SDS011;7419;52.184;5.944;2023-04-15T00:25:13;4.48;;;2.74;;
14663;SDS011;7419;52.184;5.944;2023-04-15T00:26:13;3.69;;;2.55;;
14663;SDS011;7419;52.184;5.944;2023-04-15T00:27:13;5.05;;;2.39;;
14663;SDS011;7419;52.184;5.944;2023-04-15T00:28:13;5.32;;;2.61;;
14663;SDS011;7419;52.184;5.944;2023-04-15T00:29:13;4.02;;;2.76;;
14663;SDS011;7419;52.184;5.944;2023-04-15T00:30:13;4.77;;;2.78;;
14663;SDS011;7419;52.184;5.944;2023-04-15T00:31:14;5.29;;;2.95;;
14663;SDS011;7419;52.184;5.944;2023-04-15T00:32:14;4.49;;;2.64;;
14663;SDS011;7419;52.184;5.944;2023-04-15T00:33:14;4.66;;;2.63;;
14663;SDS011;7419;52.184;5.944;2023-04-15T00:34:14;4.58;;;2.37;;
14663;SDS011;7419;52.184;5.944;2023-04-15T00:35:14;2.33;;;2.05;;
14663;SDS011;7419;52.184;5.944;2023-04-15T00:36:14;2.70;;;2.16;;
14663;SDS011;7419;52.184;5.944;2023-04-15T00:37:14;2.69;;;2.26;;
14663;SDS011;7419;52.184;5.944;2023-04-15T00:38:14;3.56;;;2.55;;
14663;SDS011;7419;52.184;5.944;2023-04-15T00:39:14;2.64;;;2.04;;
14663;SDS011;7419;52.184;5.944;2023-04-15T00:40:14;4.19;;;2.34;;
14663;SDS011;7419;52.184;5.944;2023-04-15T00:41:14;2.51;;;2.27;;
14663;SDS011;7419;52.184;5.944;2023-04-15T00:42:14;5.13;;;1.95;;
14663;SDS011;7419;52.184;5.944;2023-04-15T00:43:14;3.68;;;2.27;;
14663;SDS011;7419;52.184;5.944;2023-04-15T00:44:14;2.70;;;1.84;;
14663;SDS011;7419;52.184;5.944;2023-04-15T00:45:14;3.57;;;1.74;;
14663;SDS011;7419;52.184;5.944;2023-04-15T00:46:14;3.51;;;1.94;;
14663;SDS011;7419;52.184;5.944;2023-04-15T00:47:15;2.62;;;1.91;;
14663;SDS011;7419;52.184;5.944;2023-04-15T00:48:15;2.73;;;2.42;;
14663;SDS011;7419;52.184;5.944;2023-04-15T00:49:15;3.04;;;2.00;;
14663;SDS011;7419;52.184;5.944;2023-04-15T00:50:15;1.94;;;1.80;;
14663;SDS011;7419;52.184;5.944;2023-04-15T00:51:15;4.03;;;1.64;;
14663;SDS011;7419;52.184;5.944;2023-04-15T00:52:15;3.53;;;1.70;;
14663;SDS011;7419;52.184;5.944;2023-04-15T00:53:15;3.53;;;1.95;;
14663;SDS011;7419;52.184;5.944;2023-04-15T00:54:15;2.38;;;1.84;;
14663;SDS011;7419;52.184;5.944;2023-04-15T00:55:15;3.58;;;2.04;;
14663;SDS011;7419;52.184;5.944;2023-04-15T00:56:15;4.54;;;1.79;;
14663;SDS011;7419;52.184;5.944;2023-04-15T00:57:15;2.06;;;1.90;;
14663;SDS011;7419;52.184;5.944;2023-04-15T00:58:15;2.49;;;1.68;;
14663;SDS011;7419;52.184;5.944;2023-04-15T00:59:15;3.04;;;2.02;;
14663;SDS011;7419;52.184;5.944;2023-04-15T01:00:15;5.09;;;2.77;;
14663;SDS011;7419;52.184;5.944;2023-04-15T01:01:15;2.85;;;1.77;;
14663;SDS011;7419;52.184;5.944;2023-04-15T01:02:15;1.89;;;1.51;;
14663;SDS011;7419;52.184;5.944;2023-04-15T01:03:16;5.60;;;1.91;;
14663;SDS011;7419;52.184;5.944;2023-04-15T01:04:16;4.16;;;2.04;;
14663;SDS011;7419;52.184;5.944;2023-04-15T01:05:16;2.94;;;2.09;;
14663;SDS011;7419;52.184;5.944;2023-04-15T01:06:16;2.87;;;1.81;;
14663;SDS011;7419;52.184;5.944;2023-04-15T01:07:16;4.75;;;2.23;;
14663;SDS011;7419;52.184;5.944;2023-04-15T01:08:16;4.70;;;2.45;;
14663;SDS011;7419;52.184;5.944;2023-04-15T01:09:16;2.92;;;2.45;;
14663;SDS011;7419;52.184;5.944;2023-04-15T01:10:16;3.94;;;2.47;;
14663;SDS011;7419;52.184;5.944;2023-04-15T01:11:16;3.16;;;2.20;;
14663;SDS011;7419;52.184;5.944;2023-04-15T01:12:16;2.05;;;1.83;;
14663;SDS011;7419;52.184;5.944;2023-04-15T01:13:16;4.14;;;2.20;;
14663;SDS011;7419;52.184;5.944;2023-04-15T01:14:16;3.61;;;2.29;;
14663;SDS011;7419;52.184;5.944;2023-04-15T01:15:16;4.40;;;2.77;;
14663;SDS011;7419;52.184;5.944;2023-04-15T01:16:17;3.78;;;2.04;;
14663;SDS011;7419;52.184;5.944;2023-04-15T01:17:16;5.92;;;2.73;;
14663;SDS011;7419;52.184;5.944;2023-04-15T01:18:16;3.75;;;2.72;;
14663;SDS011;7419;52.184;5.944;2023-04-15T01:19:17;4.24;;;2.53;;
14663;SDS011;7419;52.184;5.944;2023-04-15T01:20:17;4.81;;;2.12;;
14663;SDS011;7419;52.184;5.944;2023-04-15T01:21:17;6.08;;;2.55;;
14663;SDS011;7419;52.184;5.944;2023-04-15T01:22:17;3.61;;;1.95;;
14663;SDS011;7419;52.184;5.944;2023-04-15T01:23:17;4.50;;;2.34;;
14663;SDS011;7419;52.184;5.944;2023-04-15T01:24:17;4.02;;;2.43;;
14663;SDS011;7419;52.184;5.944;2023-04-15T01:25:17;3.84;;;2.57;;
14663;SDS011;7419;52.184;5.944;2023-04-15T01:26:17;2.11;;;1.63;;
14663;SDS011;7419;52.184;5.944;2023-04-15T01:27:17;3.32;;;2.24;;
14663;SDS011;7419;52.184;5.944;2023-04-15T01:28:17;7.15;;;2.51;;
14663;SDS011;7419;52.184;5.944;2023-04-15T01:29:17;3.93;;;2.23;;
14663;SDS011;7419;52.184;5.944;2023-04-15T01:30:17;2.53;;;1.87;;
14663;SDS011;7419;52.184;5.944;2023-04-15T01:31:17;3.79;;;1.87;;
14663;SDS011;7419;52.184;5.944;2023-04-15T01:32:17;5.01;;;2.03;;
14663;SDS011;7419;52.184;5.944;2023-04-15T01:33:17;2.65;;;1.84;;
14663;SDS011;7419;52.184;5.944;2023-04-15T01:34:18;3.01;;;2.22;;
14663;SDS011;7419;52.184;5.944;2023-04-15T01:35:18;4.08;;;2.12;;
14663;SDS011;7419;52.184;5.944;2023-04-15T01:36:18;3.20;;;2.18;;
14663;SDS011;7419;52.184;5.944;2023-04-15T01:37:18;3.91;;;1.58;;
14663;SDS011;7419;52.184;5.944;2023-04-15T01:38:18;3.06;;;1.91;;
14663;SDS011;7419;52.184;5.944;2023-04-15T01:39:18;3.72;;;2.00;;
14663;SDS011;7419;52.184;5.944;2023-04-15T01:40:18;2.22;;;1.94;;
14663;SDS011;7419;52.184;5.944;2023-04-15T01:41:20;3.45;;;1.69;;
14663;SDS011;7419;52.184;5.944;2023-04-15T01:42:19;5.01;;;2.15;;
14663;SDS011;7419;52.184;5.944;2023-04-15T01:43:18;2.50;;;2.00;;
14663;SDS011;7419;52.184;5.944;2023-04-15T01:44:18;3.60;;;2.35;;
14663;SDS011;7419;52.184;5.944;2023-04-15T01:45:18;2.63;;;2.08;;
14663;SDS011;7419;52.184;5.944;2023-04-15T01:46:18;1.89;;;1.79;;
14663;SDS011;7419;52.184;5.944;2023-04-15T01:47:18;3.55;;;2.00;;
14663;SDS011;7419;52.184;5.944;2023-04-15T01:48:18;4.17;;;1.90;;
14663;SDS011;7419;52.184;5.944;2023-04-15T01:49:18;4.62;;;2.32;;
14663;SDS011;7419;52.184;5.944;2023-04-15T01:50:18;2.73;;;1.72;;
14663;SDS011;7419;52.184;5.944;2023-04-15T01:51:18;2.21;;;1.85;;
14663;SDS011;7419;52.184;5.944;2023-04-15T01:52:18;1.85;;;1.63;;
14663;SDS011;7419;52.184;5.944;2023-04-15T01:53:19;1.81;;;1.63;;
14663;SDS011;7419;52.184;5.944;2023-04-15T01:54:19;2.11;;;1.86;;
14663;SDS011;7419;52.184;5.944;2023-04-15T01:55:19;3.17;;;1.77;;
14663;SDS011;7419;52.184;5.944;2023-04-15T01:56:19;2.10;;;1.92;;
14663;SDS011;7419;52.184;5.944;2023-04-15T01:57:19;1.99;;;1.72;;
14663;SDS011;7419;52.184;5.944;2023-04-15T01:58:19;2.31;;;1.95;;
14663;SDS011;7419;52.184;5.944;2023-04-15T01:59:19;2.02;;;1.82;;
14663;SDS011;7419;52.184;5.944;2023-04-15T02:00:19;1.76;;;1.54;;
14663;SDS011;7419;52.184;5.944;2023-04-15T02:01:19;1.79;;;1.62;;
14663;SDS011;7419;52.184;5.944;2023-04-15T02:02:19;2.09;;;1.66;;
14663;SDS011;7419;52.184;5.944;2023-04-15T02:03:19;2.80;;;2.05;;
14663;SDS011;7419;52.184;5.944;2023-04-15T02:04:19;2.19;;;1.97;;
14663;SDS011;7419;52.184;5.944;2023-04-15T02:05:19;1.67;;;1.58;;
14663;SDS011;7419;52.184;5.944;2023-04-15T02:06:19;2.14;;;1.58;;
14663;SDS011;7419;52.184;5.944;2023-04-15T02:07:20;1.64;;;1.50;;
14663;SDS011;7419;52.184;5.944;2023-04-15T02:08:20;2.15;;;1.80;;
14663;SDS011;7419;52.184;5.944;2023-04-15T02:09:20;3.56;;;2.15;;
14663;SDS011;7419;52.184;5.944;2023-04-15T02:10:20;3.78;;;1.99;;
14663;SDS011;7419;52.184;5.944;2023-04-15T02:11:20;5.10;;;1.78;;
14663;SDS011;7419;52.184;5.944;2023-04-15T02:12:20;1.84;;;1.60;;
14663;SDS011;7419;52.184;5.944;2023-04-15T02:13:20;2.35;;;1.76;;
14663;SDS011;7419;52.184;5.944;2023-04-15T02:14:20;2.64;;;1.81;;
14663;SDS011;7419;52.184;5.944;2023-04-15T02:15:20;2.07;;;1.77;;
14663;SDS011;7419;52.184;5.944;2023-04-15T02:16:20;3.73;;;2.00;;
14663;SDS011;7419;52.184;5.944;2023-04-15T02:17:20;2.98;;;1.71;;
14663;SDS011;7419;52.184;5.944;2023-04-15T02:18:20;1.83;;;1.69;;
14663;SDS011;7419;52.184;5.944;2023-04-15T02:19:20;1.72;;;1.62;;
14663;SDS011;7419;52.184;5.944;2023-04-15T02:20:20;1.97;;;1.83;;
14663;SDS011;7419;52.184;5.944;2023-04-15T02:21:20;2.13;;;1.57;;
14663;SDS011;7419;52.184;5.944;2023-04-15T02:22:21;2.37;;;2.07;;
14663;SDS011;7419;52.184;5.944;2023-04-15T02:23:20;2.38;;;2.26;;
14663;SDS011;7419;52.184;5.944;2023-04-15T02:24:20;3.49;;;1.66;;
14663;SDS011;7419;52.184;5.944;2023-04-15T02:25:20;2.42;;;1.79;;
14663;SDS011;7419;52.184;5.944;2023-04-15T02:26:21;2.64;;;1.86;;
14663;SDS011;7419;52.184;5.944;2023-04-15T02:27:21;2.79;;;2.10;;
14663;SDS011;7419;52.184;5.944;2023-04-15T02:28:21;1.58;;;1.45;;
14663;SDS011;7419;52.184;5.944;2023-04-15T02:29:21;2.30;;;1.87;;
14663;SDS011;7419;52.184;5.944;2023-04-15T02:30:21;2.45;;;1.91;;
14663;SDS011;7419;52.184;5.944;2023-04-15T02:31:21;1.75;;;1.65;;
14663;SDS011;7419;52.184;5.944;2023-04-15T02:32:21;2.12;;;1.38;;
14663;SDS011;7419;52.184;5.944;2023-04-15T02:33:21;2.53;;;1.59;;
14663;SDS011;7419;52.184;5.944;2023-04-15T02:34:21;2.41;;;1.42;;
14663;SDS011;7419;52.184;5.944;2023-04-15T02:35:21;1.59;;;1.44;;
14663;SDS011;7419;52.184;5.944;2023-04-15T02:36:21;2.36;;;1.64;;
14663;SDS011;7419;52.184;5.944;2023-04-15T02:37:21;1.84;;;1.73;;
14663;SDS011;7419;52.184;5.944;2023-04-15T02:38:21;2.16;;;1.68;;
14663;SDS011;7419;52.184;5.944;2023-04-15T02:39:21;5.25;;;1.94;;
14663;SDS011;7419;52.184;5.944;2023-04-15T02:40:21;3.50;;;1.42;;
14663;SDS011;7419;52.184;5.944;2023-04-15T02:41:21;3.13;;;1.46;;
14663;SDS011;7419;52.184;5.944;2023-04-15T02:42:22;2.08;;;1.43;;
14663;SDS011;7419;52.184;5.944;2023-04-15T02:43:22;1.97;;;1.77;;
14663;SDS011;7419;52.184;5.944;2023-04-15T02:44:22;2.08;;;1.86;;
14663;SDS011;7419;52.184;5.944;2023-04-15T02:45:22;2.88;;;1.83;;
14663;SDS011;7419;52.184;5.944;2023-04-15T02:46:22;2.59;;;1.55;;
14663;SDS011;7419;52.184;5.944;2023-04-15T02:47:22;1.78;;;1.68;;
14663;SDS011;7419;52.184;5.944;2023-04-15T02:48:22;1.98;;;1.51;;
14663;SDS011;7419;52.184;5.944;2023-04-15T02:49:22;2.47;;;1.93;;
14663;SDS011;7419;52.184;5.944;2023-04-15T02:50:22;1.80;;;1.65;;
14663;SDS011;7419;52.184;5.944;2023-04-15T02:51:22;7.00;;;2.09;;
14663;SDS011;7419;52.184;5.944;2023-04-15T02:52:22;1.90;;;1.80;;
14663;SDS011;7419;52.184;5.944;2023-04-15T02:53:22;1.85;;;1.45;;
14663;SDS011;7419;52.184;5.944;2023-04-15T02:54:22;1.68;;;1.58;;
14663;SDS011;7419;52.184;5.944;2023-04-15T02:55:22;2.06;;;1.90;;
14663;SDS011;7419;52.184;5.944;2023-04-15T02:56:22;3.83;;;2.01;;
14663;SDS011;7419;52.184;5.944;2023-04-15T02:57:22;2.17;;;1.98;;
14663;SDS011;7419;52.184;5.944;2023-04-15T02:58:22;2.88;;;1.96;;
14663;SDS011;7419;52.184;5.944;2023-04-15T02:59:22;2.33;;;1.67;;
14663;SDS011;7419;52.184;5.944;2023-04-15T03:00:22;3.51;;;1.63;;
14663;SDS011;7419;52.184;5.944;2023-04-15T03:01:22;2.87;;;2.54;;
14663;SDS011;7419;52.184;5.944;2023-04-15T03:02:23;3.43;;;1.74;;
14663;SDS011;7419;52.184;5.944;2023-04-15T03:03:23;1.69;;;1.51;;
14663;SDS011;7419;52.184;5.944;2023-04-15T03:04:23;2.11;;;1.82;;
14663;SDS011;7419;52.184;5.944;2023-04-15T03:05:24;3.32;;;1.71;;
14663;SDS011;7419;52.184;5.944;2023-04-15T03:06:23;4.02;;;2.17;;
14663;SDS011;7419;52.184;5.944;2023-04-15T03:07:23;1.92;;;1.77;;
14663;SDS011;7419;52.184;5.944;2023-04-15T03:08:23;2.09;;;1.55;;
14663;SDS011;7419;52.184;5.944;2023-04-15T03:09:23;2.88;;;1.99;;
14663;SDS011;7419;52.184;5.944;2023-04-15T03:10:23;2.14;;;1.90;;
14663;SDS011;7419;52.184;5.944;2023-04-15T03:11:23;3.09;;;1.96;;
14663;SDS011;7419;52.184;5.944;2023-04-15T03:12:23;1.72;;;1.59;;
14663;SDS011;7419;52.184;5.944;2023-04-15T03:13:23;2.11;;;1.86;;
14663;SDS011;7419;52.184;5.944;2023-04-15T03:14:23;2.79;;;1.79;;
14663;SDS011;7419;52.184;5.944;2023-04-15T03:15:23;1.96;;;1.74;;
14663;SDS011;7419;52.184;5.944;2023-04-15T03:16:23;2.99;;;2.24;;
14663;SDS011;7419;52.184;5.944;2023-04-15T03:17:23;2.70;;;1.68;;
14663;SDS011;7419;52.184;5.944;2023-04-15T03:18:23;2.30;;;1.86;;
14663;SDS011;7419;52.184;5.944;2023-04-15T03:19:23;1.98;;;1.82;;
14663;SDS011;7419;52.184;5.944;2023-04-15T03:20:23;1.98;;;1.85;;
14663;SDS011;7419;52.184;5.944;2023-04-15T03:21:23;3.68;;;1.79;;
14663;SDS011;7419;52.184;5.944;2023-04-15T03:22:23;6.07;;;2.12;;
14663;SDS011;7419;52.184;5.944;2023-04-15T03:23:24;2.72;;;1.80;;
14663;SDS011;7419;52.184;5.944;2023-04-15T03:24:24;3.33;;;1.60;;
14663;SDS011;7419;52.184;5.944;2023-04-15T03:25:24;1.98;;;1.72;;
14663;SDS011;7419;52.184;5.944;2023-04-15T03:26:25;1.93;;;1.82;;
14663;SDS011;7419;52.184;5.944;2023-04-15T03:27:24;2.19;;;1.81;;
14663;SDS011;7419;52.184;5.944;2023-04-15T03:28:24;2.27;;;1.47;;
14663;SDS011;7419;52.184;5.944;2023-04-15T03:29:24;5.38;;;2.10;;
14663;SDS011;7419;52.184;5.944;2023-04-15T03:30:24;1.75;;;1.65;;
14663;SDS011;7419;52.184;5.944;2023-04-15T03:31:24;2.32;;;2.01;;
14663;SDS011;7419;52.184;5.944;2023-04-15T03:32:24;2.76;;;1.51;;
14663;SDS011;7419;52.184;5.944;2023-04-15T03:33:24;3.36;;;1.96;;
14663;SDS011;7419;52.184;5.944;2023-04-15T03:34:25;2.39;;;1.88;;
14663;SDS011;7419;52.184;5.944;2023-04-15T03:35:24;2.42;;;1.77;;
14663;SDS011;7419;52.184;5.944;2023-04-15T03:36:24;2.18;;;1.68;;
14663;SDS011;7419;52.184;5.944;2023-04-15T03:37:24;3.48;;;2.05;;
14663;SDS011;7419;52.184;5.944;2023-04-15T03:38:24;2.86;;;1.85;;
14663;SDS011;7419;52.184;5.944;2023-04-15T03:39:24;1.94;;;1.41;;
14663;SDS011;7419;52.184;5.944;2023-04-15T03:40:24;2.04;;;1.82;;
14663;SDS011;7419;52.184;5.944;2023-04-15T03:41:24;2.41;;;1.98;;
14663;SDS011;7419;52.184;5.944;2023-04-15T03:42:24;2.16;;;1.90;;
14663;SDS011;7419;52.184;5.944;2023-04-15T03:43:25;3.54;;;1.71;;
14663;SDS011;7419;52.184;5.944;2023-04-15T03:44:25;3.91;;;2.32;;
14663;SDS011;7419;52.184;5.944;2023-04-15T03:45:25;3.60;;;1.58;;
14663;SDS011;7419;52.184;5.944;2023-04-15T03:46:25;1.91;;;1.67;;
14663;SDS011;7419;52.184;5.944;2023-04-15T03:47:25;2.20;;;1.93;;
14663;SDS011;7419;52.184;5.944;2023-04-15T03:48:25;1.51;;;1.38;;
14663;SDS011;7419;52.184;5.944;2023-04-15T03:49:25;2.82;;;2.02;;
14663;SDS011;7419;52.184;5.944;2023-04-15T03:50:25;1.89;;;1.78;;
14663;SDS011;7419;52.184;5.944;2023-04-15T03:51:25;3.19;;;1.90;;
14663;SDS011;7419;52.184;5.944;2023-04-15T03:52:25;2.65;;;1.72;;
14663;SDS011;7419;52.184;5.944;2023-04-15T03:53:25;4.79;;;1.90;;
14663;SDS011;7419;52.184;5.944;2023-04-15T03:54:25;2.69;;;2.06;;
14663;SDS011;7419;52.184;5.944;2023-04-15T03:55:25;2.28;;;1.53;;
14663;SDS011;7419;52.184;5.944;2023-04-15T03:56:25;1.85;;;1.61;;
14663;SDS011;7419;52.184;5.944;2023-04-15T03:57:26;3.83;;;1.89;;
14663;SDS011;7419;52.184;5.944;2023-04-15T03:58:26;3.16;;;1.77;;
14663;SDS011;7419;52.184;5.944;2023-04-15T03:59:26;2.44;;;1.82;;
14663;SDS011;7419;52.184;5.944;2023-04-15T04:00:26;2.43;;;1.99;;
14663;SDS011;7419;52.184;5.944;2023-04-15T04:01:26;2.60;;;1.33;;
14663;SDS011;7419;52.184;5.944;2023-04-15T04:02:26;1.57;;;1.36;;
14663;SDS011;7419;52.184;5.944;2023-04-15T04:03:26;4.00;;;1.54;;
14663;SDS011;7419;52.184;5.944;2023-04-15T04:04:26;1.70;;;1.52;;
14663;SDS011;7419;52.184;5.944;2023-04-15T04:05:26;2.70;;;1.92;;
14663;SDS011;7419;52.184;5.944;2023-04-15T04:06:26;2.09;;;1.57;;
14663;SDS011;7419;52.184;5.944;2023-04-15T04:07:26;2.41;;;1.87;;
14663;SDS011;7419;52.184;5.944;2023-04-15T04:08:26;2.10;;;1.84;;
14663;SDS011;7419;52.184;5.944;2023-04-15T04:09:26;2.48;;;1.54;;
14663;SDS011;7419;52.184;5.944;2023-04-15T04:10:26;1.69;;;1.58;;
14663;SDS011;7419;52.184;5.944;2023-04-15T04:11:26;3.00;;;1.61;;
14663;SDS011;7419;52.184;5.944;2023-04-15T04:12:26;1.42;;;1.26;;
14663;SDS011;7419;52.184;5.944;2023-04-15T04:13:26;2.40;;;1.44;;
14663;SDS011;7419;52.184;5.944;2023-04-15T04:14:26;2.50;;;1.57;;
14663;SDS011;7419;52.184;5.944;2023-04-15T04:15:26;2.49;;;1.61;;
14663;SDS011;7419;52.184;5.944;2023-04-15T04:16:26;4.18;;;1.67;;
14663;SDS011;7419;52.184;5.944;2023-04-15T04:17:26;1.73;;;1.46;;
14663;SDS011;7419;52.184;5.944;2023-04-15T04:18:27;1.61;;;1.52;;
14663;SDS011;7419;52.184;5.944;2023-04-15T04:19:27;3.00;;;1.88;;
14663;SDS011;7419;52.184;5.944;2023-04-15T04:20:27;1.77;;;1.43;;
14663;SDS011;7419;52.184;5.944;2023-04-15T04:21:27;3.04;;;1.78;;
14663;SDS011;7419;52.184;5.944;2023-04-15T04:22:27;3.01;;;1.66;;
14663;SDS011;7419;52.184;5.944;2023-04-15T04:23:27;3.91;;;1.58;;
14663;SDS011;7419;52.184;5.944;2023-04-15T04:24:27;2.28;;;1.69;;
14663;SDS011;7419;52.184;5.944;2023-04-15T04:25:27;2.11;;;1.89;;
14663;SDS011;7419;52.184;5.944;2023-04-15T04:26:27;2.02;;;1.29;;
14663;SDS011;7419;52.184;5.944;2023-04-15T04:27:27;3.02;;;1.69;;
14663;SDS011;7419;52.184;5.944;2023-04-15T04:28:27;1.39;;;1.29;;
14663;SDS011;7419;52.184;5.944;2023-04-15T04:29:27;2.92;;;1.65;;
14663;SDS011;7419;52.184;5.944;2023-04-15T04:30:27;1.71;;;1.47;;
14663;SDS011;7419;52.184;5.944;2023-04-15T04:31:27;1.74;;;1.19;;
14663;SDS011;7419;52.184;5.944;2023-04-15T04:32:27;1.67;;;1.57;;
14663;SDS011;7419;52.184;5.944;2023-04-15T04:33:27;1.83;;;1.58;;
14663;SDS011;7419;52.184;5.944;2023-04-15T04:34:27;2.11;;;1.30;;
14663;SDS011;7419;52.184;5.944;2023-04-15T04:35:28;2.43;;;1.48;;
14663;SDS011;7419;52.184;5.944;2023-04-15T04:36:28;2.15;;;1.72;;
14663;SDS011;7419;52.184;5.944;2023-04-15T04:37:28;1.80;;;1.57;;
14663;SDS011;7419;52.184;5.944;2023-04-15T04:38:28;3.59;;;1.45;;
14663;SDS011;7419;52.184;5.944;2023-04-15T04:39:28;1.98;;;1.43;;
14663;SDS011;7419;52.184;5.944;2023-04-15T04:40:28;2.21;;;1.97;;
14663;SDS011;7419;52.184;5.944;2023-04-15T04:41:28;3.19;;;1.44;;
14663;SDS011;7419;52.184;5.944;2023-04-15T04:42:28;4.03;;;1.92;;
14663;SDS011;7419;52.184;5.944;2023-04-15T04:43:28;2.12;;;1.74;;
14663;SDS011;7419;52.184;5.944;2023-04-15T04:44:28;2.64;;;1.82;;
14663;SDS011;7419;52.184;5.944;2023-04-15T04:45:28;2.38;;;1.60;;
14663;SDS011;7419;52.184;5.944;2023-04-15T04:46:28;4.17;;;1.63;;
14663;SDS011;7419;52.184;5.944;2023-04-15T04:47:29;1.71;;;1.59;;
14663;SDS011;7419;52.184;5.944;2023-04-15T04:48:29;1.47;;;1.36;;
14663;SDS011;7419;52.184;5.944;2023-04-15T04:49:29;1.66;;;1.17;;
14663;SDS011;7419;52.184;5.944;2023-04-15T04:50:29;1.85;;;1.67;;
14663;SDS011;7419;52.184;5.944;2023-04-15T04:51:29;2.27;;;1.58;;
14663;SDS011;7419;52.184;5.944;2023-04-15T04:52:29;2.52;;;1.67;;
14663;SDS011;7419;52.184;5.944;2023-04-15T04:53:29;2.68;;;1.30;;
14663;SDS011;7419;52.184;5.944;2023-04-15T04:54:29;2.41;;;2.05;;
14663;SDS011;7419;52.184;5.944;2023-04-15T04:55:29;2.77;;;1.79;;
14663;SDS011;7419;52.184;5.944;2023-04-15T04:56:29;2.16;;;1.31;;
14663;SDS011;7419;52.184;5.944;2023-04-15T04:57:29;1.55;;;1.44;;
14663;SDS011;7419;52.184;5.944;2023-04-15T04:58:29;2.34;;;2.05;;
14663;SDS011;7419;52.184;5.944;2023-04-15T04:59:29;2.03;;;1.45;;
14663;SDS011;7419;52.184;5.944;2023-04-15T05:00:29;1.71;;;1.61;;
14663;SDS011;7419;52.184;5.944;2023-04-15T05:01:29;3.10;;;1.53;;
14663;SDS011;7419;52.184;5.944;2023-04-15T05:02:29;1.97;;;1.49;;
14663;SDS011;7419;52.184;5.944;2023-04-15T05:03:29;1.90;;;1.56;;
14663;SDS011;7419;52.184;5.944;2023-04-15T05:04:30;2.28;;;1.37;;
14663;SDS011;7419;52.184;5.944;2023-04-15T05:05:30;2.64;;;1.63;;
14663;SDS011;7419;52.184;5.944;2023-04-15T05:06:30;2.97;;;1.42;;
14663;SDS011;7419;52.184;5.944;2023-04-15T05:07:30;1.78;;;1.59;;
14663;SDS011;7419;52.184;5.944;2023-04-15T05:08:30;2.25;;;1.33;;
14663;SDS011;7419;52.184;5.944;2023-04-15T05:09:30;1.60;;;1.49;;
14663;SDS011;7419;52.184;5.944;2023-04-15T05:10:30;2.64;;;1.92;;
14663;SDS011;7419;52.184;5.944;2023-04-15T05:11:30;2.69;;;1.61;;
14663;SDS011;7419;52.184;5.944;2023-04-15T05:12:30;2.13;;;1.51;;
14663;SDS011;7419;52.184;5.944;2023-04-15T05:13:30;1.42;;;1.29;;
14663;SDS011;7419;52.184;5.944;2023-04-15T05:14:30;2.01;;;1.73;;
14663;SDS011;7419;52.184;5.944;2023-04-15T05:15:30;2.34;;;2.15;;
14663;SDS011;7419;52.184;5.944;2023-04-15T05:16:30;1.61;;;1.51;;
14663;SDS011;7419;52.184;5.944;2023-04-15T05:17:30;3.72;;;1.50;;
14663;SDS011;7419;52.184;5.944;2023-04-15T05:18:30;2.30;;;1.41;;
14663;SDS011;7419;52.184;5.944;2023-04-15T05:19:30;1.90;;;1.52;;
14663;SDS011;7419;52.184;5.944;2023-04-15T05:20:30;1.91;;;1.68;;
14663;SDS011;7419;52.184;5.944;2023-04-15T05:21:30;1.71;;;1.24;;
14663;SDS011;7419;52.184;5.944;2023-04-15T05:22:30;1.69;;;1.56;;
14663;SDS011;7419;52.184;5.944;2023-04-15T05:23:30;2.37;;;2.06;;
14663;SDS011;7419;52.184;5.944;2023-04-15T05:24:31;2.24;;;1.45;;
14663;SDS011;7419;52.184;5.944;2023-04-15T05:25:31;2.87;;;1.34;;
14663;SDS011;7419;52.184;5.944;2023-04-15T05:26:31;2.85;;;1.75;;
14663;SDS011;7419;52.184;5.944;2023-04-15T05:27:31;2.12;;;1.65;;
14663;SDS011;7419;52.184;5.944;2023-04-15T05:28:31;2.30;;;1.68;;
14663;SDS011;7419;52.184;5.944;2023-04-15T05:29:31;1.91;;;1.75;;
14663;SDS011;7419;52.184;5.944;2023-04-15T05:30:31;1.80;;;1.42;;
14663;SDS011;7419;52.184;5.944;2023-04-15T05:31:32;2.11;;;1.59;;
14663;SDS011;7419;52.184;5.944;2023-04-15T05:32:31;1.64;;;1.50;;
14663;SDS011;7419;52.184;5.944;2023-04-15T05:33:31;2.75;;;1.85;;
14663;SDS011;7419;52.184;5.944;2023-04-15T05:34:31;2.13;;;1.54;;
14663;SDS011;7419;52.184;5.944;2023-04-15T05:35:31;3.76;;;1.75;;
14663;SDS011;7419;52.184;5.944;2023-04-15T05:36:31;4.27;;;1.45;;
14663;SDS011;7419;52.184;5.944;2023-04-15T05:37:31;2.74;;;1.62;;
14663;SDS011;7419;52.184;5.944;2023-04-15T05:38:31;2.62;;;2.04;;
14663;SDS011;7419;52.184;5.944;2023-04-15T05:39:31;3.27;;;1.87;;
14663;SDS011;7419;52.184;5.944;2023-04-15T05:40:31;2.41;;;1.54;;
14663;SDS011;7419;52.184;5.944;2023-04-15T05:41:31;2.81;;;1.98;;
14663;SDS011;7419;52.184;5.944;2023-04-15T05:42:32;2.96;;;1.98;;
14663;SDS011;7419;52.184;5.944;2023-04-15T05:43:32;3.29;;;1.85;;
14663;SDS011;7419;52.184;5.944;2023-04-15T05:44:32;3.13;;;1.88;;
14663;SDS011;7419;52.184;5.944;2023-04-15T05:45:32;3.74;;;1.76;;
14663;SDS011;7419;52.184;5.944;2023-04-15T05:46:32;2.03;;;1.44;;
14663;SDS011;7419;52.184;5.944;2023-04-15T05:47:32;1.89;;;1.75;;
14663;SDS011;7419;52.184;5.944;2023-04-15T05:48:32;1.89;;;1.70;;
14663;SDS011;7419;52.184;5.944;2023-04-15T05:49:32;4.44;;;2.38;;
14663;SDS011;7419;52.184;5.944;2023-04-15T05:50:32;3.03;;;1.96;;
14663;SDS011;7419;52.184;5.944;2023-04-15T05:51:32;2.35;;;2.17;;
14663;SDS011;7419;52.184;5.944;2023-04-15T05:52:32;2.46;;;2.12;;
14663;SDS011;7419;52.184;5.944;2023-04-15T05:53:32;4.78;;;3.00;;
14663;SDS011;7419;52.184;5.944;2023-04-15T05:54:32;2.98;;;2.42;;
14663;SDS011;7419;52.184;5.944;2023-04-15T05:55:32;3.69;;;2.81;;
14663;SDS011;7419;52.184;5.944;2023-04-15T05:56:32;5.18;;;2.34;;
14663;SDS011;7419;52.184;5.944;2023-04-15T05:57:33;5.55;;;2.59;;
14663;SDS011;7419;52.184;5.944;2023-04-15T05:58:33;3.05;;;2.52;;
14663;SDS011;7419;52.184;5.944;2023-04-15T05:59:33;4.25;;;2.47;;
14663;SDS011;7419;52.184;5.944;2023-04-15T06:00:33;3.74;;;2.79;;
14663;SDS011;7419;52.184;5.944;2023-04-15T06:01:33;2.53;;;2.32;;
14663;SDS011;7419;52.184;5.944;2023-04-15T06:02:33;3.72;;;2.45;;
14663;SDS011;7419;52.184;5.944;2023-04-15T06:03:33;2.67;;;2.27;;
14663;SDS011;7419;52.184;5.944;2023-04-15T06:04:33;3.07;;;1.93;;
14663;SDS011;7419;52.184;5.944;2023-04-15T06:05:33;3.85;;;1.95;;
14663;SDS011;7419;52.184;5.944;2023-04-15T06:06:33;3.29;;;2.13;;
14663;SDS011;7419;52.184;5.944;2023-04-15T06:07:33;3.05;;;2.21;;
14663;SDS011;7419;52.184;5.944;2023-04-15T06:08:33;3.85;;;2.61;;